sim
Sign-in with your pilot id or email,
or register
Callsign
Passwort

Schedule Details

Flight Number: DLH2521 (2)
Departure: Glasgow International Airport (EGPF) at 15:20
Arrival: Munich Airport (EDDM) at 17:30
Route: Lufthansa Passenger Schedule. Enter filed route here before submitting Pirep.

Weather Information
Getting current METAR information for EGPF 241150Z AUTO 05012KT 9999 BKN030 BKN040 11/05 Q0994
Getting current METAR information for EDDM 241150Z 18005KT 140V210 9999 FEW033 21/14 Q1010 NOSIG

Schedule Frequency

Route Map